createdAt,value
2023-02-04T10:01:15.825Z,78.02
2023-02-04T10:05:33.563Z,77.78
2023-02-04T10:08:01.216Z,77.92
2023-02-04T10:10:28.779Z,77.63
2023-02-04T10:13:01.331Z,77.37
2023-02-04T10:15:29.025Z,77.27
2023-02-04T10:18:07.200Z,75.50
2023-02-04T10:20:34.901Z,74.61
2023-02-04T10:23:02.208Z,75.19
2023-02-04T10:25:29.545Z,75.30
2023-02-04T10:28:00.598Z,74.36
2023-02-04T10:30:43.734Z,74.57
2023-02-04T10:33:24.944Z,74.79
2023-02-04T10:35:56.745Z,74.81
2023-02-04T10:38:24.859Z,74.52
2023-02-04T10:41:06.122Z,74.28
2023-02-04T10:43:33.753Z,74.42
2023-02-04T10:46:05.486Z,74.74
2023-02-04T10:48:43.280Z,74.50
2023-02-04T10:51:13.826Z,74.45
2023-02-04T10:53:59.995Z,74.64
2023-02-04T10:56:27.314Z,74.51
2023-02-04T10:58:54.628Z,74.47
2023-02-04T11:01:22.086Z,74.13
2023-02-04T11:03:52.330Z,75.09
2023-02-04T11:06:24.821Z,75.87
2023-02-04T11:08:54.670Z,75.83
2023-02-04T11:11:26.415Z,76.16
2023-02-04T11:13:55.110Z,76.57
2023-02-04T11:16:47.400Z,76.30
2023-02-04T11:19:16.457Z,76.86
2023-02-04T11:21:46.114Z,77.20
2023-02-04T11:24:16.127Z,76.46
2023-02-04T11:27:09.108Z,77.65
2023-02-04T11:29:39.051Z,77.27
2023-02-04T11:32:38.188Z,77.50
2023-02-04T11:35:31.929Z,77.38
2023-02-04T11:37:59.885Z,77.56
2023-02-04T11:40:37.925Z,77.52
2023-02-04T11:43:15.884Z,77.77
2023-02-04T11:45:44.510Z,78.44
2023-02-04T11:48:20.438Z,77.53
2023-02-04T11:51:03.528Z,77.26
2023-02-04T11:53:34.911Z,76.62
2023-02-04T11:56:02.375Z,76.63
2023-02-04T11:58:32.116Z,76.54
2023-02-04T12:00:59.887Z,76.18
2023-02-04T12:03:34.320Z,75.56
2023-02-04T12:06:03.336Z,75.08
2023-02-04T12:08:36.821Z,75.29
2023-02-04T12:11:27.348Z,74.99
2023-02-04T12:13:59.773Z,74.83
2023-02-04T12:16:27.111Z,74.38
2023-02-04T12:18:55.498Z,74.41
2023-02-04T12:21:22.817Z,74.56
2023-02-04T12:23:50.115Z,74.19
2023-02-04T12:26:17.484Z,74.48
2023-02-04T12:28:44.764Z,75.16
2023-02-04T12:31:12.153Z,74.31
2023-02-04T12:33:39.510Z,74.47
2023-02-04T12:36:07.666Z,73.76
2023-02-04T12:38:35.003Z,72.98
2023-02-04T12:41:02.333Z,72.40
2023-02-04T12:43:29.620Z,72.66
2023-02-04T12:45:56.934Z,72.46
2023-02-04T12:48:25.986Z,72.83
2023-02-04T12:50:53.406Z,72.24
2023-02-04T12:53:20.687Z,72.15
2023-02-04T12:55:48.080Z,72.00
2023-02-04T12:58:15.383Z,72.22
2023-02-04T13:00:42.946Z,72.00
2023-02-04T13:03:10.257Z,71.76
2023-02-04T13:05:37.540Z,71.61
2023-02-04T13:08:05.210Z,71.19
2023-02-04T13:10:32.551Z,71.35
2023-02-04T13:13:01.967Z,70.73
2023-02-04T13:15:30.950Z,70.97
2023-02-04T13:17:58.877Z,70.29
2023-02-04T13:20:26.198Z,70.13
2023-02-04T13:22:53.519Z,69.94
2023-02-04T13:25:20.872Z,70.08
2023-02-04T13:27:48.339Z,69.19
2023-02-04T13:30:16.150Z,69.69
2023-02-04T13:32:43.862Z,69.85
2023-02-04T13:35:11.298Z,69.34
2023-02-04T13:37:38.686Z,68.65
2023-02-04T13:40:09.335Z,68.44
2023-02-04T13:42:36.820Z,68.46
2023-02-04T13:45:07.651Z,67.91
2023-02-04T13:47:35.167Z,68.49
2023-02-04T13:50:02.507Z,68.06
2023-02-04T13:52:29.876Z,68.46
2023-02-04T13:54:57.203Z,66.98
2023-02-04T13:57:24.555Z,65.62
2023-02-04T13:59:51.874Z,66.08
2023-02-04T14:02:21.254Z,65.41
2023-02-04T14:04:48.613Z,64.77
2023-02-04T14:07:16.041Z,64.66
2023-02-04T14:09:43.665Z,64.18
2023-02-04T14:12:11.026Z,63.66
2023-02-04T14:14:38.369Z,63.02
2023-02-04T14:17:05.763Z,62.99
2023-02-04T14:19:34.450Z,63.14
2023-02-04T14:22:02.829Z,62.02
2023-02-04T14:24:30.212Z,62.45
2023-02-04T14:26:57.550Z,62.73
2023-02-04T14:29:24.897Z,62.46
2023-02-04T14:31:52.214Z,61.81
2023-02-04T14:34:19.580Z,61.90
2023-02-04T14:36:46.884Z,61.89
2023-02-04T14:39:14.164Z,60.12
2023-02-04T14:41:41.455Z,60.28
2023-02-04T14:44:08.885Z,59.42
2023-02-04T14:46:36.334Z,60.56
2023-02-04T14:49:03.666Z,59.77
2023-02-04T14:51:30.947Z,61.06
2023-02-04T14:53:58.239Z,61.02
2023-02-04T14:56:25.525Z,61.41
2023-02-04T14:58:52.811Z,60.77
2023-02-04T15:01:20.493Z,60.35
2023-02-04T15:03:47.849Z,59.93
2023-02-04T15:06:15.264Z,59.26
2023-02-04T15:08:44.898Z,59.41
2023-02-04T15:11:13.019Z,60.06
2023-02-04T15:13:40.324Z,59.80
2023-02-04T15:16:07.670Z,59.71
2023-02-04T15:18:35.212Z,60.38
2023-02-04T15:21:02.937Z,60.12
2023-02-04T15:23:30.239Z,60.30
2023-02-04T15:25:57.747Z,59.15
2023-02-04T15:28:26.838Z,59.48
2023-02-04T15:30:54.333Z,58.63
2023-02-04T15:33:21.720Z,59.21
2023-02-04T15:35:49.135Z,60.39
2023-02-04T15:38:16.520Z,59.84
2023-02-04T15:40:43.901Z,61.02
2023-02-04T15:43:11.374Z,61.09
2023-02-04T15:45:43.690Z,61.00
2023-02-04T15:48:11.633Z,61.33
2023-02-04T15:50:40.104Z,61.02
2023-02-04T15:53:07.394Z,61.15
2023-02-04T15:55:36.046Z,61.00
2023-02-04T15:58:03.382Z,61.28
2023-02-04T16:00:30.944Z,61.14
2023-02-04T16:02:58.498Z,61.39
2023-02-04T16:05:25.889Z,61.68
2023-02-04T16:07:53.198Z,61.83
2023-02-04T16:10:21.009Z,61.90
2023-02-04T16:12:48.491Z,62.42
2023-02-04T16:15:16.090Z,62.62
2023-02-04T16:17:44.132Z,62.83
2023-02-04T16:20:12.209Z,62.31
2023-02-04T16:22:39.525Z,63.01
2023-02-04T16:25:08.320Z,63.06
2023-02-04T16:27:35.940Z,62.71
2023-02-04T16:30:04.942Z,63.36
2023-02-04T16:32:35.049Z,63.24
2023-02-04T16:35:04.272Z,63.08
2023-02-04T16:37:32.118Z,62.82
2023-02-04T16:39:59.484Z,62.86
2023-02-04T16:42:26.979Z,63.60
2023-02-04T16:44:54.288Z,63.60
2023-02-04T16:47:21.657Z,63.96
2023-02-04T16:49:49.683Z,63.95
2023-02-04T16:52:17.415Z,63.48
2023-02-04T16:54:44.846Z,63.24
2023-02-04T16:57:14.624Z,63.71
2023-02-04T16:59:42.128Z,63.49
2023-02-04T17:02:10.735Z,63.63
2023-02-04T17:04:38.045Z,63.34
2023-02-04T17:07:06.336Z,63.32
2023-02-04T17:09:33.696Z,63.56
2023-02-04T17:12:01.064Z,63.91
2023-02-04T17:14:28.573Z,63.50
2023-02-04T17:16:55.945Z,63.36
2023-02-04T17:19:24.181Z,63.59
2023-02-04T17:21:51.543Z,63.32
2023-02-04T17:24:19.528Z,63.64
2023-02-04T17:26:46.836Z,64.03
2023-02-04T17:29:21.895Z,63.81
2023-02-04T17:31:49.385Z,64.28
2023-02-04T17:34:16.754Z,64.05
2023-02-04T17:36:44.042Z,64.85
2023-02-04T17:39:11.371Z,65.21
2023-02-04T17:41:39.246Z,66.14
2023-02-04T17:44:06.591Z,66.63
2023-02-04T17:46:34.427Z,67.49
2023-02-04T17:49:01.828Z,67.71
2023-02-04T17:51:29.245Z,68.14
2023-02-04T17:53:56.606Z,67.88
2023-02-04T17:56:26.167Z,67.20
2023-02-04T17:58:56.149Z,67.77
2023-02-04T18:01:25.286Z,68.24
2023-02-04T18:03:52.831Z,68.33
2023-02-04T18:06:28.946Z,67.84
2023-02-04T18:09:02.109Z,68.06
2023-02-04T18:11:40.272Z,68.52
2023-02-04T18:14:27.381Z,68.37
2023-02-04T18:17:00.459Z,68.76
2023-02-04T18:19:37.034Z,68.55
2023-02-04T18:22:17.333Z,68.78
2023-02-04T18:24:48.790Z,67.95
